createdAt,value
2018-12-26T00:01:41.871Z,14.27
2018-12-26T00:05:49.521Z,14.20
2018-12-26T00:09:56.920Z,11.60
2018-12-26T00:14:03.417Z,14.23
2018-12-26T00:18:10.211Z,10.53
2018-12-26T00:22:16.967Z,14.80
2018-12-26T00:26:24.769Z,12.87
2018-12-26T00:30:32.631Z,12.63
2018-12-26T00:34:39.151Z,10.57
2018-12-26T00:38:49.235Z,12.93
2018-12-26T00:42:58.148Z,12.07
2018-12-26T00:47:04.671Z,10.70
2018-12-26T00:51:11.453Z,11.93
2018-12-26T00:55:20.242Z,12.57
2018-12-26T00:59:27.784Z,13.57
2018-12-26T01:03:34.370Z,13.00
2018-12-26T01:07:43.786Z,12.77
2018-12-26T01:11:50.808Z,13.17
2018-12-26T01:15:58.611Z,13.37
2018-12-26T01:20:05.466Z,12.73
2018-12-26T01:24:11.959Z,11.33
2018-12-26T01:28:18.339Z,11.40
2018-12-26T01:32:25.546Z,10.93
2018-12-26T01:36:32.885Z,11.67
2018-12-26T01:40:40.637Z,11.60
2018-12-26T01:44:47.156Z,12.57
2018-12-26T01:48:54.101Z,9.10
2018-12-26T01:53:00.675Z,11.73
2018-12-26T01:57:07.145Z,11.20
2018-12-26T02:01:15.781Z,13.57
2018-12-26T02:05:27.473Z,11.53
2018-12-26T02:09:39.383Z,13.07
2018-12-26T02:13:47.752Z,11.77
2018-12-26T02:17:54.653Z,13.63
2018-12-26T02:22:01.397Z,12.97
2018-12-26T02:26:08.017Z,14.83
2018-12-26T02:30:14.409Z,14.87
2018-12-26T02:34:20.939Z,11.57
2018-12-26T02:38:28.291Z,12.60
2018-12-26T02:42:34.669Z,9.47
2018-12-26T02:46:41.056Z,14.93
2018-12-26T02:50:47.516Z,13.60
2018-12-26T02:54:54.574Z,13.27
2018-12-26T02:59:01.159Z,11.43
2018-12-26T03:03:08.395Z,12.37
2018-12-26T03:07:19.618Z,14.40
2018-12-26T03:11:26.543Z,15.57
2018-12-26T03:15:33.581Z,13.03
2018-12-26T03:19:40.031Z,15.80
2018-12-26T03:23:47.534Z,13.07
2018-12-26T03:27:58.022Z,12.30
2018-12-26T03:32:04.568Z,9.83
2018-12-26T03:36:10.995Z,10.57
2018-12-26T03:40:17.811Z,14.83
2018-12-26T03:44:25.306Z,14.63
2018-12-26T03:48:32.570Z,10.70
2018-12-26T03:52:39.164Z,12.17
2018-12-26T03:56:45.748Z,13.20
2018-12-26T04:00:52.966Z,8.80
2018-12-26T04:04:59.489Z,12.77
2018-12-26T04:09:09.803Z,11.40
2018-12-26T04:13:18.129Z,11.33
2018-12-26T04:17:25.414Z,10.57
2018-12-26T04:21:32.107Z,8.80
2018-12-26T04:25:38.584Z,9.67
2018-12-26T04:29:45.106Z,11.50
2018-12-26T04:33:52.728Z,8.10
2018-12-26T04:37:59.356Z,11.27
2018-12-26T04:42:05.976Z,13.83
2018-12-26T04:46:12.469Z,10.30
2018-12-26T04:50:19.814Z,10.83
2018-12-26T04:54:26.257Z,10.80
2018-12-26T04:58:32.896Z,10.97
2018-12-26T05:02:39.377Z,10.53
2018-12-26T05:06:46.776Z,10.93
2018-12-26T05:10:53.452Z,8.80
2018-12-26T05:15:00.020Z,10.87
2018-12-26T05:19:06.446Z,10.57
2018-12-26T05:23:13.158Z,7.90
2018-12-26T05:27:19.942Z,8.43
2018-12-26T05:31:26.315Z,9.10
2018-12-26T05:35:32.932Z,7.90
2018-12-26T05:39:41.198Z,6.90
2018-12-26T05:43:47.640Z,7.43
2018-12-26T05:47:54.119Z,8.47
2018-12-26T05:52:00.629Z,8.37
2018-12-26T05:56:08.054Z,5.63
2018-12-26T06:00:14.553Z,6.97
2018-12-26T06:04:21.048Z,7.73
2018-12-26T06:08:27.589Z,8.17
2018-12-26T06:12:35.575Z,7.80
2018-12-26T06:16:42.056Z,6.73
2018-12-26T06:20:49.393Z,6.97
2018-12-26T06:24:59.040Z,6.50
2018-12-26T06:29:07.186Z,9.60
2018-12-26T06:33:16.038Z,6.53
2018-12-26T06:37:22.471Z,8.10
2018-12-26T06:41:29.252Z,8.60
2018-12-26T06:45:37.169Z,8.00
2018-12-26T06:49:45.386Z,7.40
2018-12-26T06:53:51.895Z,5.00
2018-12-26T06:58:00.214Z,8.60
2018-12-26T07:02:07.570Z,7.70
2018-12-26T07:06:13.972Z,8.73
2018-12-26T07:10:20.404Z,9.80
2018-12-26T07:14:26.929Z,10.53
2018-12-26T07:18:34.329Z,9.63
2018-12-26T07:22:41.002Z,9.40
2018-12-26T07:26:47.479Z,8.90
2018-12-26T07:30:58.742Z,7.83
2018-12-26T07:35:05.798Z,9.37
2018-12-26T07:39:13.446Z,9.83
2018-12-26T07:43:20.343Z,9.13
2018-12-26T07:47:26.850Z,9.20
2018-12-26T07:51:34.189Z,11.47
2018-12-26T07:55:40.806Z,10.40
2018-12-26T07:59:47.595Z,9.70
2018-12-26T08:03:55.839Z,7.33
2018-12-26T08:08:02.832Z,9.30
2018-12-26T08:12:09.354Z,9.70
2018-12-26T08:16:16.577Z,8.23
2018-12-26T08:20:23.025Z,10.93
2018-12-26T08:24:31.651Z,8.53
2018-12-26T08:28:37.582Z,9.37
2018-12-26T08:32:43.952Z,9.70
2018-12-26T08:36:50.356Z,10.80
2018-12-26T08:40:59.300Z,8.37
2018-12-26T08:45:06.780Z,8.10
2018-12-26T08:49:13.895Z,9.40
2018-12-26T08:53:21.280Z,9.53
2018-12-26T08:57:28.768Z,8.17
2018-12-26T09:01:37.924Z,9.53
2018-12-26T09:05:44.391Z,9.13
2018-12-26T09:09:50.838Z,6.67
2018-12-26T09:13:58.997Z,9.47
2018-12-26T09:18:05.356Z,7.70
2018-12-26T09:22:11.730Z,8.80
2018-12-26T09:26:20.631Z,9.73
2018-12-26T09:30:49.200Z,9.00
2018-12-26T09:34:55.772Z,9.00
2018-12-26T09:39:04.582Z,9.70
2018-12-26T09:43:12.333Z,8.47
2018-12-26T09:47:22.069Z,6.90
2018-12-26T09:51:28.630Z,7.43
2018-12-26T09:55:35.492Z,8.53
2018-12-26T10:00:03.193Z,7.03
2018-12-26T10:04:10.854Z,10.83
2018-12-26T10:08:17.235Z,8.87
2018-12-26T10:12:23.684Z,9.37
2018-12-26T10:16:30.274Z,8.10
2018-12-26T10:20:46.659Z,8.57
2018-12-26T10:24:55.667Z,7.77
2018-12-26T10:29:02.971Z,7.20
2018-12-26T10:33:09.520Z,8.27
2018-12-26T10:37:16.471Z,6.87
2018-12-26T10:41:23.041Z,8.13
2018-12-26T10:45:30.069Z,8.13
2018-12-26T10:49:37.108Z,9.73
2018-12-26T10:53:45.740Z,8.87
2018-12-26T10:57:52.558Z,8.23
2018-12-26T11:02:02.342Z,7.00
2018-12-26T11:06:10.949Z,7.10
2018-12-26T11:10:40.722Z,7.40
2018-12-26T11:14:47.350Z,7.17
2018-12-26T11:18:55.801Z,7.10
2018-12-26T11:23:02.665Z,7.03
2018-12-26T11:27:14.029Z,8.40
2018-12-26T11:31:21.145Z,7.90
2018-12-26T11:35:30.612Z,7.50
2018-12-26T11:39:39.476Z,5.20
2018-12-26T11:43:46.299Z,6.70
2018-12-26T11:47:53.376Z,7.23
2018-12-26T11:52:00.066Z,7.33
2018-12-26T11:56:07.011Z,6.47
2018-12-26T12:00:15.987Z,6.53
2018-12-26T12:04:22.648Z,4.90
2018-12-26T12:08:29.001Z,7.23
2018-12-26T12:12:35.410Z,5.57
2018-12-26T12:16:42.820Z,8.00
2018-12-26T12:20:49.349Z,7.60
2018-12-26T12:24:55.847Z,6.93
2018-12-26T12:29:02.550Z,6.40
2018-12-26T12:33:15.091Z,7.40
2018-12-26T12:37:22.218Z,6.60
2018-12-26T12:41:31.465Z,6.87
2018-12-26T12:45:40.944Z,5.97
2018-12-26T12:49:47.650Z,6.43
2018-12-26T12:53:54.158Z,6.37
2018-12-26T12:58:00.658Z,7.53
2018-12-26T13:02:07.295Z,7.57
2018-12-26T13:06:13.774Z,4.80
2018-12-26T13:10:20.287Z,6.60
2018-12-26T13:14:27.143Z,6.40
2018-12-26T13:18:34.300Z,4.47
2018-12-26T13:22:41.365Z,5.10
2018-12-26T13:26:48.107Z,5.13
2018-12-26T13:30:54.607Z,5.27
2018-12-26T13:35:02.245Z,5.47
2018-12-26T13:39:09.398Z,5.67
2018-12-26T13:43:16.208Z,5.63
2018-12-26T13:47:22.568Z,6.20
2018-12-26T13:51:29.355Z,5.53
2018-12-26T13:55:38.753Z,5.03
2018-12-26T13:59:45.321Z,5.80
2018-12-26T14:03:51.992Z,6.13
2018-12-26T14:07:58.773Z,5.93
2018-12-26T14:12:06.174Z,5.23
2018-12-26T14:16:13.041Z,4.50
2018-12-26T14:20:19.606Z,5.57
2018-12-26T14:24:26.411Z,4.50
2018-12-26T14:28:33.655Z,5.60
2018-12-26T14:32:40.308Z,4.43
2018-12-26T14:36:47.820Z,4.87
2018-12-26T14:40:54.245Z,5.60
2018-12-26T14:45:01.593Z,4.23
2018-12-26T14:49:08.220Z,5.23
2018-12-26T14:53:14.706Z,6.13
2018-12-26T14:57:21.285Z,3.90
2018-12-26T15:01:31.245Z,4.90
2018-12-26T15:05:37.860Z,6.33
2018-12-26T15:09:44.350Z,6.73
2018-12-26T15:13:50.840Z,5.77
2018-12-26T15:17:58.426Z,5.93
2018-12-26T15:22:06.372Z,7.50
2018-12-26T15:26:12.726Z,7.10
2018-12-26T15:30:28.420Z,5.90
2018-12-26T15:34:29.991Z,4.27
2018-12-26T15:38:37.701Z,5.93
2018-12-26T15:42:44.143Z,5.10
2018-12-26T15:46:50.656Z,4.17
2018-12-26T15:50:58.132Z,4.27
2018-12-26T15:55:04.815Z,5.57
2018-12-26T15:59:16.476Z,5.50
2018-12-26T16:03:23.567Z,5.30
2018-12-26T16:07:31.459Z,4.87
2018-12-26T16:11:38.341Z,4.47
2018-12-26T16:15:46.430Z,5.37
2018-12-26T16:19:53.754Z,4.50
2018-12-26T16:24:02.799Z,5.90
2018-12-26T16:28:09.297Z,4.53
2018-12-26T16:32:15.814Z,6.07
2018-12-26T16:36:22.472Z,5.00
2018-12-26T16:40:30.978Z,5.60
2018-12-26T16:44:38.339Z,5.70
2018-12-26T16:48:44.755Z,5.63
2018-12-26T16:52:51.442Z,5.27
2018-12-26T16:57:01.212Z,4.57
2018-12-26T17:01:07.783Z,4.90
2018-12-26T17:05:14.234Z,5.27
2018-12-26T17:09:20.919Z,6.03
2018-12-26T17:13:28.037Z,5.57
2018-12-26T17:17:34.595Z,4.80
2018-12-26T17:21:41.230Z,5.90
2018-12-26T17:25:47.637Z,4.07
2018-12-26T17:29:55.901Z,4.83
2018-12-26T17:34:02.407Z,5.60
2018-12-26T17:38:08.842Z,7.37
2018-12-26T17:42:16.788Z,4.37
2018-12-26T17:46:24.535Z,5.83
2018-12-26T17:50:47.395Z,5.60
2018-12-26T17:55:15.348Z,4.63
2018-12-26T17:59:36.803Z,6.73
2018-12-26T18:03:43.427Z,5.03
2018-12-26T18:07:50.392Z,4.93
2018-12-26T18:12:11.247Z,6.87
2018-12-26T18:16:05.936Z,5.40
2018-12-26T18:20:13.291Z,6.90
2018-12-26T18:24:19.901Z,5.97
2018-12-26T18:28:27.760Z,5.23
2018-12-26T18:32:34.248Z,7.50
2018-12-26T18:36:43.097Z,5.93
2018-12-26T18:40:49.672Z,5.40
2018-12-26T18:44:57.713Z,6.93
2018-12-26T18:49:04.340Z,4.73
2018-12-26T18:53:12.186Z,6.70
2018-12-26T18:57:18.691Z,4.77
2018-12-26T19:01:30.557Z,5.77
2018-12-26T19:05:33.498Z,5.43
2018-12-26T19:09:45.037Z,5.73
2018-12-26T19:13:51.470Z,6.50
2018-12-26T19:17:59.543Z,6.87
2018-12-26T19:22:06.081Z,5.70
2018-12-26T19:26:16.253Z,5.37
2018-12-26T19:30:22.663Z,6.10
2018-12-26T19:34:31.659Z,5.73
2018-12-26T19:38:38.150Z,6.33
2018-12-26T19:42:45.172Z,4.67
2018-12-26T19:46:51.994Z,8.10
2018-12-26T19:50:58.510Z,7.03
2018-12-26T19:55:07.589Z,6.10
2018-12-26T19:59:16.440Z,6.47
2018-12-26T20:03:23.117Z,7.47
2018-12-26T20:07:29.519Z,6.00
2018-12-26T20:11:36.062Z,6.70
2018-12-26T20:15:42.483Z,7.03
2018-12-26T20:19:51.155Z,6.30
2018-12-26T20:23:57.611Z,6.37
2018-12-26T20:28:04.144Z,5.67
2018-12-26T20:32:11.776Z,7.33
2018-12-26T20:36:18.247Z,6.10
2018-12-26T20:40:31.179Z,6.80
2018-12-26T20:44:38.965Z,5.90
2018-12-26T20:48:50.067Z,5.43
2018-12-26T20:52:56.985Z,4.77
2018-12-26T20:57:05.812Z,5.10
2018-12-26T21:01:16.437Z,5.50
2018-12-26T21:05:23.544Z,6.90
2018-12-26T21:09:30.405Z,7.43
2018-12-26T21:13:41.473Z,7.57
2018-12-26T21:17:50.587Z,7.10
2018-12-26T21:21:57.166Z,9.10
2018-12-26T21:26:03.768Z,6.73
2018-12-26T21:30:16.258Z,9.33
2018-12-26T21:34:23.702Z,8.63
2018-12-26T21:38:31.723Z,8.50
2018-12-26T21:42:40.329Z,8.33
2018-12-26T21:46:48.043Z,8.43
2018-12-26T21:50:58.087Z,9.13
2018-12-26T21:55:06.182Z,8.60
2018-12-26T21:59:12.770Z,8.93
2018-12-26T22:03:20.435Z,8.93
2018-12-26T22:07:27.761Z,8.53
2018-12-26T22:11:35.540Z,9.50
2018-12-26T22:15:43.765Z,7.87
2018-12-26T22:19:51.556Z,8.30
2018-12-26T22:23:58.921Z,7.67
2018-12-26T22:28:07.068Z,10.20
2018-12-26T22:32:14.936Z,9.90
2018-12-26T22:36:21.976Z,10.70
2018-12-26T22:40:31.325Z,10.87
2018-12-26T22:44:39.744Z,7.90
2018-12-26T22:48:46.995Z,11.07
2018-12-26T22:52:54.523Z,9.33
2018-12-26T22:57:01.217Z,9.83
2018-12-26T23:01:09.407Z,11.10
2018-12-26T23:05:16.167Z,12.87
2018-12-26T23:09:24.228Z,11.70
2018-12-26T23:13:30.875Z,10.87
2018-12-26T23:17:42.035Z,11.97
2018-12-26T23:21:49.758Z,12.73
2018-12-26T23:25:56.218Z,12.40
2018-12-26T23:30:04.794Z,10.07
2018-12-26T23:34:13.513Z,9.27
2018-12-26T23:38:22.896Z,10.57
2018-12-26T23:42:29.391Z,11.33
2018-12-26T23:46:36.442Z,12.53
2018-12-26T23:50:43.402Z,10.40
2018-12-26T23:54:51.243Z,10.23
2018-12-26T23:58:58.403Z,10.33
